sensor_id;sensor_type;location;lat;lon;timestamp;pressure;altitude;pressure_sealevel;temperature;humidity
40994;BME280;26722;43.212;27.932;2023-09-19T00:00:30;65400.81;;;-146.72;74.57
40994;BME280;26722;43.212;27.932;2023-09-19T00:02:57;65405.06;;;-146.72;74.88
40994;BME280;26722;43.212;27.932;2023-09-19T00:05:27;65426.25;;;-146.72;74.37
40994;BME280;26722;43.212;27.932;2023-09-19T00:07:56;65426.25;;;-146.72;74.21
40994;BME280;26722;43.212;27.932;2023-09-19T00:10:25;65462.25;;;-146.72;74.38
40994;BME280;26722;43.212;27.932;2023-09-19T00:12:55;65396.59;;;-146.72;73.76
40994;BME280;26722;43.212;27.932;2023-09-19T00:15:23;65849.81;;;-146.72;73.71
40994;BME280;26722;43.212;27.932;2023-09-19T00:17:49;65436.81;;;-146.72;73.45
40994;BME280;26722;43.212;27.932;2023-09-19T00:20:17;65462.25;;;-146.72;73.02
40994;BME280;26722;43.212;27.932;2023-09-19T00:22:43;65424.13;;;-146.72;73.13
40994;BME280;26722;43.212;27.932;2023-09-19T00:25:08;65392.34;;;-146.72;73.26
40994;BME280;26722;43.212;27.932;2023-09-19T00:27:38;65434.72;;;-146.72;73.01
40994;BME280;26722;43.212;27.932;2023-09-19T00:30:08;65415.66;;;-146.72;72.85
40994;BME280;26722;43.212;27.932;2023-09-19T00:32:40;65485.53;;;-146.72;72.98
40994;BME280;26722;43.212;27.932;2023-09-19T00:35:05;65468.59;;;-146.72;72.88
40994;BME280;26722;43.212;27.932;2023-09-19T00:37:31;65430.47;;;-146.72;72.78
40994;BME280;26722;43.212;27.932;2023-09-19T00:39:56;65438.94;;;-146.72;72.84
40994;BME280;26722;43.212;27.932;2023-09-19T00:42:22;65413.53;;;-146.72;73.33
40994;BME280;26722;43.212;27.932;2023-09-19T00:44:47;65434.72;;;-146.72;73.41
40994;BME280;26722;43.212;27.932;2023-09-19T00:47:17;65443.19;;;-146.72;73.61
40994;BME280;26722;43.212;27.932;2023-09-19T00:49:44;65458.00;;;-146.72;74.00
40994;BME280;26722;43.212;27.932;2023-09-19T00:52:11;65443.19;;;-146.72;74.06
40994;BME280;26722;43.212;27.932;2023-09-19T00:54:37;65443.19;;;-146.72;74.19
40994;BME280;26722;43.212;27.932;2023-09-19T00:57:03;65447.41;;;-146.72;74.61
40994;BME280;26722;43.212;27.932;2023-09-19T00:59:29;65441.06;;;-146.72;74.89
40994;BME280;26722;43.212;27.932;2023-09-19T01:01:56;65411.41;;;-146.72;75.80
40994;BME280;26722;43.212;27.932;2023-09-19T01:04:22;65510.94;;;-146.72;76.36
40994;BME280;26722;43.212;27.932;2023-09-19T01:06:49;65443.19;;;-146.72;75.80
40994;BME280;26722;43.212;27.932;2023-09-19T01:09:21;65438.94;;;-146.72;75.90
40994;BME280;26722;43.212;27.932;2023-09-19T01:11:50;65449.53;;;-146.72;76.44
40994;BME280;26722;43.212;27.932;2023-09-19T01:17:25;65417.78;;;-146.72;77.68
40994;BME280;26722;43.212;27.932;2023-09-19T01:22:56;65419.88;;;-146.72;77.61
40994;BME280;26722;43.212;27.932;2023-09-19T01:25:56;65453.78;;;-146.72;77.70
40994;BME280;26722;43.212;27.932;2023-09-19T01:30:59;65337.31;;;-146.72;78.52
40994;BME280;26722;43.212;27.932;2023-09-19T01:33:28;65400.81;;;-146.72;78.46
40994;BME280;26722;43.212;27.932;2023-09-19T01:36:16;65428.34;;;-146.72;78.28
40994;BME280;26722;43.212;27.932;2023-09-19T01:38:41;65481.31;;;-146.72;78.16
40994;BME280;26722;43.212;27.932;2023-09-19T01:41:11;65419.88;;;-146.72;78.32
40994;BME280;26722;43.212;27.932;2023-09-19T01:43:42;65496.13;;;-146.72;77.92
40994;BME280;26722;43.212;27.932;2023-09-19T01:46:30;65409.31;;;-146.72;77.79
40994;BME280;26722;43.212;27.932;2023-09-19T01:54:23;65409.31;;;-146.72;77.31
40994;BME280;26722;43.212;27.932;2023-09-19T01:57:07;65417.78;;;-146.72;77.31
40994;BME280;26722;43.212;27.932;2023-09-19T01:59:45;65400.81;;;-146.72;77.41
40994;BME280;26722;43.212;27.932;2023-09-19T02:02:14;65422.00;;;-146.72;77.57
40994;BME280;26722;43.212;27.932;2023-09-19T02:04:43;65409.31;;;-146.72;78.12
40994;BME280;26722;43.212;27.932;2023-09-19T02:07:08;65422.00;;;-146.72;78.60
40994;BME280;26722;43.212;27.932;2023-09-19T02:09:34;65426.25;;;-146.72;78.90
40994;BME280;26722;43.212;27.932;2023-09-19T02:12:01;65383.88;;;-146.72;79.28
40994;BME280;26722;43.212;27.932;2023-09-19T02:14:29;65413.53;;;-146.72;79.71
40994;BME280;26722;43.212;27.932;2023-09-19T02:16:55;65409.31;;;-146.72;80.17
40994;BME280;26722;43.212;27.932;2023-09-19T02:19:21;65430.47;;;-146.72;80.38
40994;BME280;26722;43.212;27.932;2023-09-19T02:21:47;65438.94;;;-146.72;80.89
40994;BME280;26722;43.212;27.932;2023-09-19T02:24:14;65350.00;;;-146.72;81.28
40994;BME280;26722;43.212;27.932;2023-09-19T02:26:40;65407.19;;;-146.72;81.25
40994;BME280;26722;43.212;27.932;2023-09-19T02:29:06;65453.78;;;-146.72;81.73
40994;BME280;26722;43.212;27.932;2023-09-19T02:31:32;65424.13;;;-146.72;81.63
40994;BME280;26722;43.212;27.932;2023-09-19T02:33:57;65377.53;;;-146.72;81.87
40994;BME280;26722;43.212;27.932;2023-09-19T02:36:22;65381.78;;;-146.72;81.83
40994;BME280;26722;43.212;27.932;2023-09-19T02:38:49;65413.53;;;-146.72;81.57
40994;BME280;26722;43.212;27.932;2023-09-19T02:41:14;65710.03;;;-146.72;81.68
40994;BME280;26722;43.212;27.932;2023-09-19T02:43:40;65415.66;;;-146.72;81.50
40994;BME280;26722;43.212;27.932;2023-09-19T02:46:05;65422.00;;;-146.72;81.71
40994;BME280;26722;43.212;27.932;2023-09-19T02:48:31;65360.59;;;-146.72;82.55
40994;BME280;26722;43.212;27.932;2023-09-19T02:50:57;65407.19;;;-146.72;83.01
40994;BME280;26722;43.212;27.932;2023-09-19T02:53:22;65402.94;;;-146.72;82.93
40994;BME280;26722;43.212;27.932;2023-09-19T02:55:49;65383.88;;;-146.72;83.16
40994;BME280;26722;43.212;27.932;2023-09-19T02:58:15;65432.59;;;-146.72;83.51
40994;BME280;26722;43.212;27.932;2023-09-19T03:00:41;65409.31;;;-146.72;83.16
40994;BME280;26722;43.212;27.932;2023-09-19T03:03:08;65409.31;;;-146.72;82.95
40994;BME280;26722;43.212;27.932;2023-09-19T03:05:34;65413.53;;;-146.72;82.96
40994;BME280;26722;43.212;27.932;2023-09-19T03:08:00;65413.53;;;-146.72;83.39
40994;BME280;26722;43.212;27.932;2023-09-19T03:10:28;65417.78;;;-146.72;83.80
40994;BME280;26722;43.212;27.932;2023-09-19T03:12:54;65394.47;;;-146.72;84.29
40994;BME280;26722;43.212;27.932;2023-09-19T03:15:20;65417.78;;;-146.72;84.86
40994;BME280;26722;43.212;27.932;2023-09-19T03:17:48;65400.81;;;-146.72;84.92
40994;BME280;26722;43.212;27.932;2023-09-19T03:20:14;65375.41;;;-146.72;85.21
40994;BME280;26722;43.212;27.932;2023-09-19T03:22:45;65369.06;;;-146.72;84.97
40994;BME280;26722;43.212;27.932;2023-09-19T03:25:11;65369.06;;;-146.72;84.71
40994;BME280;26722;43.212;27.932;2023-09-19T03:27:38;65405.06;;;-146.72;84.81
40994;BME280;26722;43.212;27.932;2023-09-19T03:30:05;65379.66;;;-146.72;84.88
40994;BME280;26722;43.212;27.932;2023-09-19T03:32:34;65394.47;;;-146.72;85.17
40994;BME280;26722;43.212;27.932;2023-09-19T03:35:00;65396.59;;;-146.72;85.16
40994;BME280;26722;43.212;27.932;2023-09-19T03:37:26;65400.81;;;-146.72;84.98
40994;BME280;26722;43.212;27.932;2023-09-19T03:39:51;65419.88;;;-146.72;85.20
40994;BME280;26722;43.212;27.932;2023-09-19T03:42:17;65413.53;;;-146.72;85.58
40994;BME280;26722;43.212;27.932;2023-09-19T03:44:42;65612.59;;;-146.72;85.96
40994;BME280;26722;43.212;27.932;2023-09-19T03:47:08;65417.78;;;-146.72;86.40
40994;BME280;26722;43.212;27.932;2023-09-19T03:49:33;65396.59;;;-146.72;86.89
40994;BME280;26722;43.212;27.932;2023-09-19T03:51:59;65379.66;;;-146.72;87.04
40994;BME280;26722;43.212;27.932;2023-09-19T03:54:24;65383.88;;;-146.72;86.91
40994;BME280;26722;43.212;27.932;2023-09-19T03:56:50;65375.41;;;-146.72;86.99
40994;BME280;26722;43.212;27.932;2023-09-19T03:59:15;65396.59;;;-146.72;86.83
40994;BME280;26722;43.212;27.932;2023-09-19T04:01:41;65388.13;;;-146.72;86.77
40994;BME280;26722;43.212;27.932;2023-09-19T04:04:07;65409.31;;;-146.72;86.65
40994;BME280;26722;43.212;27.932;2023-09-19T04:06:35;65396.59;;;-146.72;85.98
40994;BME280;26722;43.212;27.932;2023-09-19T04:09:04;65366.94;;;-146.72;85.12
40994;BME280;26722;43.212;27.932;2023-09-19T04:11:32;65386.00;;;-146.72;84.78
40994;BME280;26722;43.212;27.932;2023-09-19T04:13:58;65400.81;;;-146.72;84.36
40994;BME280;26722;43.212;27.932;2023-09-19T04:16:23;65388.13;;;-146.72;83.79
40994;BME280;26722;43.212;27.932;2023-09-19T04:18:49;65402.94;;;-146.72;83.28
40994;BME280;26722;43.212;27.932;2023-09-19T04:21:14;65405.06;;;-146.72;82.25
40994;BME280;26722;43.212;27.932;2023-09-19T04:23:40;65347.88;;;-146.72;82.11
40994;BME280;26722;43.212;27.932;2023-09-19T04:26:05;65362.72;;;-146.72;81.50
40994;BME280;26722;43.212;27.932;2023-09-19T04:28:31;65352.13;;;-146.72;80.86
40994;BME280;26722;43.212;27.932;2023-09-19T04:30:57;65371.19;;;-146.72;80.48
40994;BME280;26722;43.212;27.932;2023-09-19T04:33:24;65398.72;;;-146.72;80.40
40994;BME280;26722;43.212;27.932;2023-09-19T04:35:52;65392.34;;;-146.72;79.24
40994;BME280;26722;43.212;27.932;2023-09-19T04:38:18;65366.94;;;-146.72;77.65
40994;BME280;26722;43.212;27.932;2023-09-19T04:40:45;65371.19;;;-146.72;77.52
40994;BME280;26722;43.212;27.932;2023-09-19T04:43:10;65354.25;;;-146.72;77.15
40994;BME280;26722;43.212;27.932;2023-09-19T04:45:38;65358.47;;;-146.72;76.28
40994;BME280;26722;43.212;27.932;2023-09-19T04:48:04;65362.72;;;-146.72;75.15
40994;BME280;26722;43.212;27.932;2023-09-19T04:50:31;65381.78;;;-146.72;74.96
40994;BME280;26722;43.212;27.932;2023-09-19T04:52:57;65381.78;;;-146.72;74.12
40994;BME280;26722;43.212;27.932;2023-09-19T04:55:23;65358.47;;;-146.72;73.78
40994;BME280;26722;43.212;27.932;2023-09-19T04:57:52;65371.19;;;-146.72;72.75
40994;BME280;26722;43.212;27.932;2023-09-19T05:00:21;65388.13;;;-146.72;72.26
40994;BME280;26722;43.212;27.932;2023-09-19T05:02:50;65390.25;;;-146.72;71.16
40994;BME280;26722;43.212;27.932;2023-09-19T05:05:21;65375.41;;;-146.72;70.79
40994;BME280;26722;43.212;27.932;2023-09-19T05:07:48;65362.72;;;-146.72;70.04
40994;BME280;26722;43.212;27.932;2023-09-19T05:10:14;65396.59;;;-146.72;70.05
40994;BME280;26722;43.212;27.932;2023-09-19T05:12:40;65364.81;;;-146.72;69.28
40994;BME280;26722;43.212;27.932;2023-09-19T05:15:06;65377.53;;;-146.72;68.81
40994;BME280;26722;43.212;27.932;2023-09-19T05:17:33;65366.94;;;-146.72;68.92
40994;BME280;26722;43.212;27.932;2023-09-19T05:20:00;65383.88;;;-146.72;69.06
40994;BME280;26722;43.212;27.932;2023-09-19T05:25:26;65436.81;;;-146.72;70.72
40994;BME280;26722;43.212;27.932;2023-09-19T05:27:56;65390.25;;;-146.72;71.15
40994;BME280;26722;43.212;27.932;2023-09-19T05:30:23;65472.84;;;-146.72;71.88
40994;BME280;26722;43.212;27.932;2023-09-19T05:32:48;65333.06;;;-146.72;72.49
40994;BME280;26722;43.212;27.932;2023-09-19T05:35:14;65366.94;;;-146.72;71.94
40994;BME280;26722;43.212;27.932;2023-09-19T05:37:39;65402.94;;;-146.72;71.29
40994;BME280;26722;43.212;27.932;2023-09-19T05:40:05;65364.81;;;-146.72;70.86
40994;BME280;26722;43.212;27.932;2023-09-19T05:42:38;65352.13;;;-146.72;70.22
40994;BME280;26722;43.212;27.932;2023-09-19T05:45:05;65350.00;;;-146.72;69.50
40994;BME280;26722;43.212;27.932;2023-09-19T05:47:32;65390.25;;;-146.72;69.32
40994;BME280;26722;43.212;27.932;2023-09-19T05:49:57;65388.13;;;-146.72;69.30
40994;BME280;26722;43.212;27.932;2023-09-19T05:52:23;65307.66;;;-146.72;69.51
40994;BME280;26722;43.212;27.932;2023-09-19T05:54:48;65379.66;;;-146.72;69.38
40994;BME280;26722;43.212;27.932;2023-09-19T05:57:14;65415.66;;;-146.72;66.66
40994;BME280;26722;43.212;27.932;2023-09-19T05:59:40;65748.16;;;-146.72;66.45
40994;BME280;26722;43.212;27.932;2023-09-19T06:02:08;65375.41;;;-146.72;65.95
40994;BME280;26722;43.212;27.932;2023-09-19T06:04:34;65409.31;;;-146.72;66.33
40994;BME280;26722;43.212;27.932;2023-09-19T06:06:59;65381.78;;;-146.72;66.28
40994;BME280;26722;43.212;27.932;2023-09-19T06:09:25;65532.13;;;-146.72;66.79
40994;BME280;26722;43.212;27.932;2023-09-19T06:11:53;65415.66;;;-146.72;67.47
40994;BME280;26722;43.212;27.932;2023-09-19T06:14:20;65409.31;;;-146.72;68.29
40994;BME280;26722;43.212;27.932;2023-09-19T06:16:46;65388.13;;;-146.72;67.46
40994;BME280;26722;43.212;27.932;2023-09-19T06:19:12;65388.13;;;-146.72;66.97
40994;BME280;26722;43.212;27.932;2023-09-19T06:21:37;65377.53;;;-146.72;67.02
40994;BME280;26722;43.212;27.932;2023-09-19T06:24:04;65398.72;;;-146.72;66.48
40994;BME280;26722;43.212;27.932;2023-09-19T06:26:30;65366.94;;;-146.72;66.53
40994;BME280;26722;43.212;27.932;2023-09-19T06:28:56;65424.13;;;-146.72;64.65
40994;BME280;26722;43.212;27.932;2023-09-19T06:31:22;65430.47;;;-146.72;64.39
40994;BME280;26722;43.212;27.932;2023-09-19T06:33:51;65430.47;;;-146.72;64.00
40994;BME280;26722;43.212;27.932;2023-09-19T06:36:17;65394.47;;;-146.72;64.58
40994;BME280;26722;43.212;27.932;2023-09-19T06:38:42;65426.25;;;-146.72;65.19
40994;BME280;26722;43.212;27.932;2023-09-19T06:41:08;65396.59;;;-146.72;63.90
40994;BME280;26722;43.212;27.932;2023-09-19T06:43:34;65386.00;;;-146.72;63.18
40994;BME280;26722;43.212;27.932;2023-09-19T06:46:00;65409.31;;;-146.72;62.46
40994;BME280;26722;43.212;27.932;2023-09-19T06:48:26;65443.19;;;-146.72;59.68
40994;BME280;26722;43.212;27.932;2023-09-19T06:50:56;65445.31;;;-146.72;60.37
40994;BME280;26722;43.212;27.932;2023-09-19T06:53:24;65453.78;;;-146.72;61.31
40994;BME280;26722;43.212;27.932;2023-09-19T06:55:52;65422.00;;;-146.72;59.92
40994;BME280;26722;43.212;27.932;2023-09-19T06:58:18;65458.00;;;-146.72;59.16
40994;BME280;26722;43.212;27.932;2023-09-19T07:00:45;65489.78;;;-146.72;58.86
40994;BME280;26722;43.212;27.932;2023-09-19T07:03:13;65462.25;;;-146.72;58.14
40994;BME280;26722;43.212;27.932;2023-09-19T07:05:40;65458.00;;;-146.72;57.83
40994;BME280;26722;43.212;27.932;2023-09-19T07:08:07;65479.19;;;-146.72;56.36
40994;BME280;26722;43.212;27.932;2023-09-19T07:10:33;65513.06;;;-146.72;55.62
40994;BME280;26722;43.212;27.932;2023-09-19T07:13:00;65540.59;;;-146.72;54.83
40994;BME280;26722;43.212;27.932;2023-09-19T07:15:26;65513.06;;;-146.72;53.86
40994;BME280;26722;43.212;27.932;2023-09-19T07:17:53;65527.88;;;-146.72;53.79
40994;BME280;26722;43.212;27.932;2023-09-19T07:20:20;65602.00;;;-146.72;53.84
40994;BME280;26722;43.212;27.932;2023-09-19T07:22:45;65534.25;;;-146.72;53.31
40994;BME280;26722;43.212;27.932;2023-09-19T07:25:13;65568.13;;;-146.72;53.60
40994;BME280;26722;43.212;27.932;2023-09-19T07:27:41;65540.59;;;-146.72;52.88
40994;BME280;26722;43.212;27.932;2023-09-19T07:30:07;65536.38;;;-146.72;53.19
40994;BME280;26722;43.212;27.932;2023-09-19T07:32:33;65523.66;;;-146.72;54.81
40994;BME280;26722;43.212;27.932;2023-09-19T07:35:02;65578.72;;;-146.72;53.73
40994;BME280;26722;43.212;27.932;2023-09-19T07:37:29;65557.53;;;-146.72;56.15
40994;BME280;26722;43.212;27.932;2023-09-19T07:39:56;65521.53;;;-146.72;55.92
40994;BME280;26722;43.212;27.932;2023-09-19T07:42:22;65536.38;;;-146.72;55.69
40994;BME280;26722;43.212;27.932;2023-09-19T07:44:47;65650.72;;;-146.72;50.78
40994;BME280;26722;43.212;27.932;2023-09-19T07:47:16;65633.78;;;-146.72;50.32
40994;BME280;26722;43.212;27.932;2023-09-19T07:49:41;65635.91;;;-146.72;51.39
40994;BME280;26722;43.212;27.932;2023-09-19T07:52:08;65644.38;;;-146.72;51.17
40994;BME280;26722;43.212;27.932;2023-09-19T07:54:35;65612.59;;;-146.72;53.30
40994;BME280;26722;43.212;27.932;2023-09-19T07:57:01;65625.31;;;-146.72;53.97
40994;BME280;26722;43.212;27.932;2023-09-19T07:59:27;65582.94;;;-146.72;54.52
40994;BME280;26722;43.212;27.932;2023-09-19T08:01:53;65568.13;;;-146.72;54.26
40994;BME280;26722;43.212;27.932;2023-09-19T08:04:19;65574.47;;;-146.72;55.03
40994;BME280;26722;43.212;27.932;2023-09-19T08:06:44;65549.06;;;-146.72;54.83
40994;BME280;26722;43.212;27.932;2023-09-19T08:09:10;65574.47;;;-146.72;54.63
40994;BME280;26722;43.212;27.932;2023-09-19T08:11:37;65591.44;;;-146.72;54.68
40994;BME280;26722;43.212;27.932;2023-09-19T08:14:05;65604.13;;;-146.72;53.49
40994;BME280;26722;43.212;27.932;2023-09-19T08:16:33;65599.91;;;-146.72;52.73
40994;BME280;26722;43.212;27.932;2023-09-19T08:18:58;65572.38;;;-146.72;53.77
40994;BME280;26722;43.212;27.932;2023-09-19T08:21:24;65591.44;;;-146.72;53.34
40994;BME280;26722;43.212;27.932;2023-09-19T08:23:51;65593.53;;;-146.72;53.54
40994;BME280;26722;43.212;27.932;2023-09-19T08:26:16;65616.84;;;-146.72;52.77
40994;BME280;26722;43.212;27.932;2023-09-19T08:28:42;65633.78;;;-146.72;52.07
40994;BME280;26722;43.212;27.932;2023-09-19T08:31:08;65582.94;;;-146.72;53.40
40994;BME280;26722;43.212;27.932;2023-09-19T08:33:37;65608.38;;;-146.72;52.93
40994;BME280;26722;43.212;27.932;2023-09-19T08:36:06;65582.94;;;-146.72;54.13
40994;BME280;26722;43.212;27.932;2023-09-19T08:38:34;65652.84;;;-146.72;52.41
40994;BME280;26722;43.212;27.932;2023-09-19T08:41:00;65635.91;;;-146.72;51.76
40994;BME280;26722;43.212;27.932;2023-09-19T08:43:27;65604.13;;;-146.72;54.23
40994;BME280;26722;43.212;27.932;2023-09-19T08:46:10;65595.66;;;-146.72;53.60
40994;BME280;26722;43.212;27.932;2023-09-19T08:49:05;65616.84;;;-146.72;52.58
40994;BME280;26722;43.212;27.932;2023-09-19T08:51:43;65578.72;;;-146.72;54.67
40994;BME280;26722;43.212;27.932;2023-09-19T08:54:21;65606.25;;;-146.72;53.31
40994;BME280;26722;43.212;27.932;2023-09-19T08:56:50;65638.00;;;-146.72;52.51
40994;BME280;26722;43.212;27.932;2023-09-19T08:59:15;65582.94;;;-146.72;54.86
40994;BME280;26722;43.212;27.932;2023-09-19T09:01:42;65570.25;;;-146.72;55.49
40994;BME280;26722;43.212;27.932;2023-09-19T09:04:09;65595.66;;;-146.72;54.25
40994;BME280;26722;43.212;27.932;2023-09-19T09:06:38;65599.91;;;-146.72;53.97
40994;BME280;26722;43.212;27.932;2023-09-19T09:09:05;65566.00;;;-146.72;54.89
40994;BME280;26722;43.212;27.932;2023-09-19T09:11:32;65923.94;;;-146.72;53.54
40994;BME280;26722;43.212;27.932;2023-09-19T09:13:58;65760.84;;;-146.72;54.37
40994;BME280;26722;43.212;27.932;2023-09-19T09:16:24;65610.47;;;-146.72;53.21
40994;BME280;26722;43.212;27.932;2023-09-19T09:18:51;65597.78;;;-146.72;52.51
40994;BME280;26722;43.212;27.932;2023-09-19T09:21:18;65654.97;;;-146.72;51.20
40994;BME280;26722;43.212;27.932;2023-09-19T09:23:44;65650.72;;;-146.72;51.41
40994;BME280;26722;43.212;27.932;2023-09-19T09:26:09;65606.25;;;-146.72;53.04
40994;BME280;26722;43.212;27.932;2023-09-19T09:28:35;65602.00;;;-146.72;53.28
40994;BME280;26722;43.212;27.932;2023-09-19T09:31:04;65657.06;;;-146.72;51.58
40994;BME280;26722;43.212;27.932;2023-09-19T09:33:38;65640.13;;;-146.72;52.44
40994;BME280;26722;43.212;27.932;2023-09-19T09:36:05;65608.38;;;-146.72;54.27
40994;BME280;26722;43.212;27.932;2023-09-19T09:38:46;65618.97;;;-146.72;53.46
40994;BME280;26722;43.212;27.932;2023-09-19T09:41:15;65625.31;;;-146.72;52.11
40994;BME280;26722;43.212;27.932;2023-09-19T09:43:52;65580.84;;;-146.72;53.21
40994;BME280;26722;43.212;27.932;2023-09-19T09:46:20;65572.38;;;-146.72;53.06
40994;BME280;26722;43.212;27.932;2023-09-19T09:51:42;65604.13;;;-146.72;53.41
40994;BME280;26722;43.212;27.932;2023-09-19T09:54:29;65606.25;;;-146.72;53.38
40994;BME280;26722;43.212;27.932;2023-09-19T09:57:08;65591.44;;;-146.72;53.08
40994;BME280;26722;43.212;27.932;2023-09-19T09:59:59;65595.66;;;-146.72;53.18
40994;BME280;26722;43.212;27.932;2023-09-19T10:02:42;65604.13;;;-146.72;52.47
40994;BME280;26722;43.212;27.932;2023-09-19T10:05:13;65614.72;;;-146.72;53.06
40994;BME280;26722;43.212;27.932;2023-09-19T10:07:50;65599.91;;;-146.72;54.40
40994;BME280;26722;43.212;27.932;2023-09-19T10:10:35;65566.00;;;-146.72;54.76
40994;BME280;26722;43.212;27.932;2023-09-19T10:13:10;65587.19;;;-146.72;54.58
40994;BME280;26722;43.212;27.932;2023-09-19T10:15:50;65614.72;;;-146.72;52.63
40994;BME280;26722;43.212;27.932;2023-09-19T10:18:22;65616.84;;;-146.72;52.46
40994;BME280;26722;43.212;27.932;2023-09-19T10:20:48;65582.94;;;-146.72;54.51
40994;BME280;26722;43.212;27.932;2023-09-19T10:23:20;65580.84;;;-146.72;53.81
40994;BME280;26722;43.212;27.932;2023-09-19T10:25:52;65608.38;;;-146.72;52.30
40994;BME280;26722;43.212;27.932;2023-09-19T10:28:18;65621.06;;;-146.72;52.96
40994;BME280;26722;43.212;27.932;2023-09-19T10:30:51;65593.53;;;-146.72;53.86
40994;BME280;26722;43.212;27.932;2023-09-19T10:33:19;65593.53;;;-146.72;53.69
40994;BME280;26722;43.212;27.932;2023-09-19T10:35:50;65510.94;;;-146.72;54.78
40994;BME280;26722;43.212;27.932;2023-09-19T10:38:26;65553.31;;;-146.72;55.07
40994;BME280;26722;43.212;27.932;2023-09-19T10:40:56;65638.00;;;-146.72;55.56
40994;BME280;26722;43.212;27.932;2023-09-19T10:43:33;65538.47;;;-146.72;55.08
40994;BME280;26722;43.212;27.932;2023-09-19T10:46:11;65555.41;;;-146.72;54.94
40994;BME280;26722;43.212;27.932;2023-09-19T10:48:39;65546.94;;;-146.72;55.21
40994;BME280;26722;43.212;27.932;2023-09-19T10:51:15;65546.94;;;-146.72;55.24
40994;BME280;26722;43.212;27.932;2023-09-19T10:54:05;65597.78;;;-146.72;53.86
40994;BME280;26722;43.212;27.932;2023-09-19T10:56:37;65570.25;;;-146.72;53.25
40994;BME280;26722;43.212;27.932;2023-09-19T10:59:11;65602.00;;;-146.72;52.47
40994;BME280;26722;43.212;27.932;2023-09-19T11:01:54;65623.19;;;-146.72;52.96
40994;BME280;26722;43.212;27.932;2023-09-19T11:04:32;65621.06;;;-146.72;52.77
40994;BME280;26722;43.212;27.932;2023-09-19T11:07:11;65635.91;;;-146.72;53.11
40994;BME280;26722;43.212;27.932;2023-09-19T11:09:47;65559.66;;;-146.72;53.92
40994;BME280;26722;43.212;27.932;2023-09-19T11:14:57;65582.94;;;-146.72;54.13
40994;BME280;26722;43.212;27.932;2023-09-19T11:17:30;65585.06;;;-146.72;54.06
40994;BME280;26722;43.212;27.932;2023-09-19T11:30:45;65513.06;;;-146.72;56.63
40994;BME280;26722;43.212;27.932;2023-09-19T11:33:27;65542.72;;;-146.72;57.22
40994;BME280;26722;43.212;27.932;2023-09-19T11:36:10;65506.72;;;-146.72;57.63
40994;BME280;26722;43.212;27.932;2023-09-19T11:49:16;65521.53;;;-146.72;56.59
40994;BME280;26722;43.212;27.932;2023-09-19T11:51:46;65515.19;;;-146.72;56.13
40994;BME280;26722;43.212;27.932;2023-09-19T11:54:13;65582.94;;;-146.72;55.21
40994;BME280;26722;43.212;27.932;2023-09-19T11:56:51;65536.38;;;-146.72;55.08
40994;BME280;26722;43.212;27.932;2023-09-19T11:59:22;65578.72;;;-146.72;55.88
40994;BME280;26722;43.212;27.932;2023-09-19T12:01:53;65561.78;;;-146.72;56.26
40994;BME280;26722;43.212;27.932;2023-09-19T12:06:58;65527.88;;;-146.72;54.86
40994;BME280;26722;43.212;27.932;2023-09-19T12:09:24;65574.47;;;-146.72;53.93
40994;BME280;26722;43.212;27.932;2023-09-19T12:11:50;65576.59;;;-146.72;55.68
40994;BME280;26722;43.212;27.932;2023-09-19T12:14:23;65527.88;;;-146.72;56.72
40994;BME280;26722;43.212;27.932;2023-09-19T12:16:56;65568.13;;;-146.72;56.80
40994;BME280;26722;43.212;27.932;2023-09-19T12:19:22;65498.25;;;-146.72;57.99
40994;BME280;26722;43.212;27.932;2023-09-19T12:21:59;65523.66;;;-146.72;56.74
40994;BME280;26722;43.212;27.932;2023-09-19T12:24:28;65443.19;;;-146.72;57.43
40994;BME280;26722;43.212;27.932;2023-09-19T12:27:00;65494.00;;;-146.72;57.65
40994;BME280;26722;43.212;27.932;2023-09-19T12:29:29;65515.19;;;-146.72;57.86
40994;BME280;26722;43.212;27.932;2023-09-19T12:31:59;65767.19;;;-146.72;57.08
40994;BME280;26722;43.212;27.932;2023-09-19T12:34:30;65538.47;;;-146.72;57.45
40994;BME280;26722;43.212;27.932;2023-09-19T12:39:45;65494.00;;;-146.72;59.55
40994;BME280;26722;43.212;27.932;2023-09-19T12:42:26;65462.25;;;-146.72;60.00
40994;BME280;26722;43.212;27.932;2023-09-19T12:44:58;65472.84;;;-146.72;58.83
40994;BME280;26722;43.212;27.932;2023-09-19T12:47:27;65498.25;;;-146.72;58.78
40994;BME280;26722;43.212;27.932;2023-09-19T12:52:39;65494.00;;;-146.72;59.63
40994;BME280;26722;43.212;27.932;2023-09-19T12:55:05;65502.47;;;-146.72;59.35
40994;BME280;26722;43.212;27.932;2023-09-19T12:57:36;65460.13;;;-146.72;60.17
40994;BME280;26722;43.212;27.932;2023-09-19T13:00:03;65458.00;;;-146.72;60.52
40994;BME280;26722;43.212;27.932;2023-09-19T13:02:31;65443.19;;;-146.72;61.46
40994;BME280;26722;43.212;27.932;2023-09-19T13:04:58;65417.78;;;-146.72;62.08
40994;BME280;26722;43.212;27.932;2023-09-19T13:07:43;65417.78;;;-146.72;62.16
40994;BME280;26722;43.212;27.932;2023-09-19T13:10:09;65409.31;;;-146.72;62.00
40994;BME280;26722;43.212;27.932;2023-09-19T13:12:36;65400.81;;;-146.72;61.50
40994;BME280;26722;43.212;27.932;2023-09-19T13:15:10;65413.53;;;-146.72;61.65
40994;BME280;26722;43.212;27.932;2023-09-19T13:17:46;65494.00;;;-146.72;61.63
40994;BME280;26722;43.212;27.932;2023-09-19T13:22:55;65455.88;;;-146.72;61.17
40994;BME280;26722;43.212;27.932;2023-09-19T13:25:25;65455.88;;;-146.72;60.30
40994;BME280;26722;43.212;27.932;2023-09-19T13:27:54;65485.53;;;-146.72;59.74
40994;BME280;26722;43.212;27.932;2023-09-19T13:30:26;65481.31;;;-146.72;58.29
40994;BME280;26722;43.212;27.932;2023-09-19T13:32:52;65472.84;;;-146.72;58.09